Time;durP1;ratioP1;P1;durP2;ratioP2;P2;SDS_P1;SDS_P2;PMS_P1;PMS_P2;Temp;Humidity;BMP_temperature;BMP_pressure;BME280_temperature;BME280_humidity;BME280_pressure;Samples;Min_cycle;Max_cycle;Signal;HPM_P1;HPM_P2
2022/01/22 00:00:16;;;;;;;2.10;1.83;;;5.40;81.50;5.20;97487.00;;;;5052045;28;20215;-85
2022/01/22 00:02:44;;;;;;;2.43;1.80;;;5.40;81.50;5.20;97495.00;;;;5051732;28;20216;-86
2022/01/22 00:45:43;;;;;;;3.03;2.07;;;5.20;81.30;4.80;97458.00;;;;5055394;28;20334;-85
2022/01/22 00:48:10;;;;;;;3.57;1.80;;;5.20;82.00;4.80;97459.00;;;;5055348;28;20228;-85
2022/01/22 00:50:37;;;;;;;2.70;1.80;;;5.20;82.20;4.80;97451.00;;;;5055505;28;20197;-85
2022/01/22 00:53:04;;;;;;;2.90;2.00;;;5.20;82.10;4.80;97448.00;;;;5055010;28;20296;-85
2022/01/22 00:55:31;;;;;;;4.13;2.07;;;5.20;82.40;4.90;97448.00;;;;5068630;28;20196;-85
2022/01/22 00:57:58;;;;;;;2.63;1.90;;;5.20;82.20;4.90;97444.00;;;;5065361;28;20209;-86
2022/01/22 01:00:25;;;;;;;2.73;1.80;;;5.20;82.00;4.90;97446.00;;;;5058170;28;20282;-86
2022/01/22 01:02:54;;;;;;;2.70;2.03;;;5.20;82.20;4.90;97441.00;;;;5074850;28;20231;-85
2022/01/22 01:05:21;;;;;;;3.70;2.07;;;5.20;81.60;4.90;97433.00;;;;5073273;28;20199;-85
2022/01/22 01:07:48;;;;;;;2.13;1.70;;;5.20;82.10;4.90;97420.00;;;;5073598;28;20223;-85
2022/01/22 01:10:19;;;;;;;2.50;1.80;;;5.20;82.20;5.00;97425.00;;;;5074566;28;20196;-85
2022/01/22 01:12:47;;;;;;;2.73;1.80;;;5.20;81.90;4.90;97432.00;;;;5074295;28;20224;-85
2022/01/22 01:15:35;;;;;;;3.13;1.63;;;5.20;81.50;5.00;97425.00;;;;5074687;28;20207;-85
2022/01/22 01:32:09;;;;;;;2.20;1.70;;;5.30;81.60;5.00;97434.00;;;;5074927;28;20184;-85
2022/01/22 01:32:18;;;;;;;3.23;1.60;;;5.20;81.70;4.90;97447.00;;;;5060548;28;20235;-85
2022/01/22 01:34:50;;;;;;;1.97;1.77;;;5.30;81.70;4.90;97427.00;;;;5053465;28;20203;-85
2022/01/22 01:37:19;;;;;;;2.13;1.80;;;5.20;81.50;4.90;97438.00;;;;5054475;28;20593;-85
2022/01/22 01:39:50;;;;;;;3.93;1.97;;;5.20;82.00;4.90;97438.00;;;;5054459;28;20201;-86
2022/01/22 01:42:22;;;;;;;1.77;1.47;;;5.20;82.00;4.90;97443.00;;;;5053927;28;20227;-86
2022/01/22 01:44:50;;;;;;;3.23;1.97;;;5.20;82.10;4.90;97435.00;;;;5055273;28;20200;-86
2022/01/22 01:47:19;;;;;;;4.43;2.07;;;5.20;82.00;4.90;97439.00;;;;5073980;28;20220;-85
2022/01/22 01:49:47;;;;;;;2.63;2.10;;;5.20;81.80;4.90;97428.00;;;;5072850;28;20711;-85
2022/01/22 01:52:20;;;;;;;3.10;1.97;;;5.30;82.00;4.90;97429.00;;;;5072913;28;20214;-85
2022/01/22 01:55:01;;;;;;;2.33;2.10;;;5.20;82.00;5.00;97420.00;;;;5072443;28;20291;-85
2022/01/22 02:00:18;;;;;;;3.77;2.20;;;5.20;82.10;5.00;97416.00;;;;5070932;28;20188;-85
2022/01/22 02:02:47;;;;;;;2.67;2.00;;;5.30;82.00;5.00;97411.00;;;;5073768;28;20726;-85
2022/01/22 02:05:19;;;;;;;1.90;1.80;;;5.30;82.20;5.00;97400.00;;;;5073694;28;20277;-85
2022/01/22 02:07:46;;;;;;;2.83;2.07;;;5.30;82.20;5.00;97401.00;;;;5073635;28;20258;-85
2022/01/22 02:10:19;;;;;;;4.00;2.40;;;5.30;82.30;5.00;97397.00;;;;5074588;28;20760;-85
2022/01/22 02:23:52;;;;;;;2.67;2.20;;;5.30;82.20;5.00;97382.00;;;;5052616;28;20188;-86
2022/01/22 02:26:19;;;;;;;2.30;2.03;;;5.30;82.40;5.00;97384.00;;;;5053131;28;20193;-85
2022/01/22 02:28:50;;;;;;;2.97;2.13;;;5.30;82.40;5.00;97380.00;;;;5052350;28;20720;-85
2022/01/22 02:31:26;;;;;;;4.07;2.83;;;5.30;82.20;5.00;97396.00;;;;5053135;28;20796;-85
2022/01/22 02:34:01;;;;;;;3.00;2.40;;;5.30;82.30;5.00;97393.00;;;;5052821;28;20814;-85
2022/01/22 02:36:35;;;;;;;3.23;2.60;;;5.30;82.40;5.00;97378.00;;;;5068010;28;20221;-85
2022/01/22 02:39:08;;;;;;;2.97;2.40;;;5.30;82.50;5.00;97371.00;;;;5093339;28;20699;-85
2022/01/22 02:41:41;;;;;;;4.00;2.80;;;5.30;82.30;5.00;97387.00;;;;5093087;28;20211;-85
2022/01/22 02:44:14;;;;;;;4.13;2.70;;;5.30;82.40;5.00;97397.00;;;;5075981;28;20196;-85
2022/01/22 02:46:43;;;;;;;6.80;2.70;;;5.30;82.60;5.00;97384.00;;;;5073279;28;20641;-85
2022/01/22 02:49:10;;;;;;;2.93;2.63;;;5.30;82.60;5.00;97393.00;;;;5072647;28;20223;-85
2022/01/22 02:51:39;;;;;;;3.90;2.60;;;5.30;82.40;5.00;97395.00;;;;5072337;28;20593;-85
2022/01/22 02:54:06;;;;;;;1.97;1.87;;;5.30;82.30;5.00;97394.00;;;;5072764;28;20196;-85
2022/01/22 02:56:34;;;;;;;2.33;2.10;;;5.30;82.40;5.00;97398.00;;;;5072861;28;20662;-85
2022/01/22 02:59:00;;;;;;;2.57;2.37;;;5.30;82.80;5.10;97391.00;;;;5072444;28;20200;-85
2022/01/22 03:01:28;;;;;;;4.30;3.13;;;5.30;82.70;5.10;97385.00;;;;5072194;28;20212;-85
2022/01/22 03:03:55;;;;;;;4.47;2.67;;;5.30;82.80;5.10;97387.00;;;;5073034;28;20231;-85
2022/01/22 03:06:22;;;;;;;4.23;2.60;;;5.30;82.80;5.10;97389.00;;;;5071780;28;20203;-84
2022/01/22 03:08:51;;;;;;;2.80;2.60;;;5.30;83.40;5.10;97383.00;;;;5072296;28;20573;-84
2022/01/22 03:11:21;;;;;;;4.13;2.90;;;5.40;83.00;5.10;97372.00;;;;5055457;28;20216;-85
2022/01/22 03:14:26;;;;;;;4.10;2.77;;;5.40;83.00;5.10;97384.00;;;;5052697;28;20201;-84
2022/01/22 03:16:56;;;;;;;3.00;2.70;;;5.50;82.80;5.10;97385.00;;;;5052114;28;20227;-85
2022/01/22 03:19:53;;;;;;;2.80;2.60;;;5.40;82.80;5.10;97376.00;;;;5051538;28;20211;-85
2022/01/22 03:22:25;;;;;;;2.93;2.63;;;5.40;82.90;5.20;97375.00;;;;5052189;28;20248;-85
2022/01/22 03:27:38;;;;;;;3.23;2.93;;;5.40;82.80;5.10;97383.00;;;;5051631;28;20208;-85
2022/01/22 03:30:07;;;;;;;3.13;2.83;;;5.40;83.10;5.10;97377.00;;;;5051978;28;20208;-85
2022/01/22 03:32:40;;;;;;;3.20;2.90;;;5.40;83.10;5.20;97377.00;;;;5052914;28;20228;-85
2022/01/22 03:35:13;;;;;;;3.20;2.90;;;5.40;83.10;5.20;97391.00;;;;5052762;28;20205;-85
2022/01/22 03:37:43;;;;;;;2.67;2.47;;;5.40;82.90;5.20;97385.00;;;;5052839;28;20231;-85
2022/01/22 03:40:14;;;;;;;3.30;2.50;;;5.40;83.20;5.20;97388.00;;;;5052791;28;20203;-85
2022/01/22 03:42:42;;;;;;;3.23;2.93;;;5.40;83.30;5.20;97374.00;;;;5052509;28;20307;-85
2022/01/22 03:45:12;;;;;;;3.77;2.90;;;5.40;83.30;5.20;97381.00;;;;5057851;28;20231;-86
2022/01/22 03:47:41;;;;;;;4.77;3.07;;;5.50;83.30;5.20;97380.00;;;;5072408;28;20211;-86
2022/01/22 03:50:11;;;;;;;3.33;2.90;;;5.50;83.20;5.20;97381.00;;;;5072781;28;20200;-85
2022/01/22 03:52:38;;;;;;;2.90;2.60;;;5.40;83.20;5.20;97387.00;;;;5069436;28;20705;-85
2022/01/22 03:55:14;;;;;;;4.30;2.70;;;5.40;83.30;5.20;97384.00;;;;5052127;28;20201;-86
2022/01/22 03:57:42;;;;;;;2.60;2.33;;;5.50;83.30;5.20;97378.00;;;;5059270;28;20195;-85
2022/01/22 04:00:11;;;;;;;5.37;2.67;;;5.40;83.20;5.20;97392.00;;;;5071943;28;20246;-85
2022/01/22 04:05:25;;;;;;;5.77;2.87;;;5.40;83.30;5.20;97388.00;;;;5084608;28;20191;-86
2022/01/22 04:10:36;;;;;;;3.20;2.87;;;5.40;83.40;5.20;97386.00;;;;5082560;28;20196;-85
2022/01/22 04:13:07;;;;;;;2.77;2.53;;;5.40;83.70;5.20;97383.00;;;;5072407;28;20212;-85
2022/01/22 04:15:38;;;;;;;2.60;2.40;;;5.40;83.70;5.20;97382.00;;;;5061187;28;20207;-86
2022/01/22 04:26:29;;;;;;;3.27;2.97;;;5.40;83.70;5.20;97378.00;;;;5073950;28;20195;-85
2022/01/22 04:28:58;;;;;;;4.90;2.80;;;5.50;83.80;5.20;97383.00;;;;5057926;28;20219;-85
2022/01/22 04:31:25;;;;;;;3.87;3.03;;;5.40;83.70;5.20;97370.00;;;;5055678;28;20596;-86
2022/01/22 04:33:54;;;;;;;3.03;2.77;;;5.40;83.80;5.20;97383.00;;;;5071566;28;20192;-86
2022/01/22 04:36:21;;;;;;;3.40;3.10;;;5.50;84.20;5.20;97366.00;;;;5075321;28;20207;-85
2022/01/22 04:38:48;;;;;;;3.57;2.90;;;5.40;84.00;5.20;97365.00;;;;5060105;28;20208;-86
2022/01/22 04:41:15;;;;;;;4.37;2.93;;;5.40;83.90;5.20;97373.00;;;;5055407;28;20212;-85
2022/01/22 04:43:44;;;;;;;3.27;3.07;;;5.50;84.00;5.20;97368.00;;;;5054431;28;20192;-85
2022/01/22 04:46:20;;;;;;;3.23;2.97;;;5.50;84.00;5.20;97364.00;;;;5069133;28;20241;-86
2022/01/22 04:49:06;;;;;;;3.40;3.10;;;5.50;84.00;5.30;97354.00;;;;5075370;28;20274;-86
2022/01/22 04:57:03;;;;;;;3.93;3.53;;;5.50;84.40;5.30;97362.00;;;;5068478;28;20202;-85
2022/01/22 04:59:31;;;;;;;4.83;3.77;;;5.50;84.30;5.30;97361.00;;;;5072597;28;20665;-86
2022/01/22 05:01:59;;;;;;;3.60;3.27;;;5.60;84.50;5.30;97364.00;;;;5074465;28;20226;-85
2022/01/22 05:04:26;;;;;;;4.10;3.80;;;5.50;84.40;5.30;97361.00;;;;5075078;28;20196;-86
2022/01/22 05:06:53;;;;;;;5.00;3.80;;;5.50;84.30;5.40;97359.00;;;;5057169;28;20201;-85
2022/01/22 05:09:20;;;;;;;4.00;3.60;;;5.50;84.40;5.30;97361.00;;;;5055204;28;20220;-85
2022/01/22 05:11:47;;;;;;;3.70;3.40;;;5.60;84.50;5.40;97367.00;;;;5055111;28;20713;-86
2022/01/22 05:14:14;;;;;;;3.97;3.20;;;5.60;84.30;5.30;97357.00;;;;5072547;28;20196;-85
2022/01/22 05:16:42;;;;;;;3.77;3.47;;;5.60;84.30;5.40;97360.00;;;;5063661;28;20204;-85
2022/01/22 05:19:14;;;;;;;3.50;3.20;;;5.60;84.40;5.40;97371.00;;;;5055177;28;20255;-86
2022/01/22 05:21:43;;;;;;;3.63;3.27;;;5.60;84.60;5.40;97364.00;;;;5054468;28;20217;-86
2022/01/22 05:24:15;;;;;;;4.23;3.83;;;5.60;84.60;5.50;97383.00;;;;5054698;28;20201;-86
2022/01/22 05:30:01;;;;;;;4.43;4.07;;;5.60;84.70;5.50;97387.00;;;;5012377;28;20222;-85
2022/01/22 05:32:37;;;;;;;4.47;3.90;;;5.70;84.60;5.60;97373.00;;;;5066672;28;20262;-85
2022/01/22 05:37:50;;;;;;;3.73;3.43;;;5.70;84.60;5.60;97377.00;;;;5054142;28;20196;-85
2022/01/22 05:40:18;;;;;;;4.80;4.30;;;5.70;84.50;5.60;97375.00;;;;5053761;28;20207;-86
2022/01/22 05:42:45;;;;;;;4.40;4.00;;;5.80;84.70;5.60;97366.00;;;;5072711;28;20219;-85
2022/01/22 05:45:12;;;;;;;4.27;3.87;;;5.70;84.60;5.70;97374.00;;;;5069011;28;20205;-85
2022/01/22 05:47:39;;;;;;;4.00;3.70;;;5.80;84.70;5.70;97370.00;;;;5054897;28;20203;-85
2022/01/22 05:50:14;;;;;;;4.93;4.07;;;5.80;84.60;5.70;97372.00;;;;5054380;28;20221;-85
2022/01/22 05:52:53;;;;;;;4.43;4.03;;;5.80;84.50;5.70;97368.00;;;;5054928;28;20220;-85
2022/01/22 05:59:35;;;;;;;4.47;3.83;;;5.70;84.50;5.60;97362.00;;;;5053909;28;20184;-85
2022/01/22 06:01:16;;;;;;;3.90;3.50;;;5.80;84.50;5.60;97374.00;;;;5054071;28;20219;-84
2022/01/22 06:03:44;;;;;;;4.13;3.73;;;5.80;84.60;5.60;97382.00;;;;5083019;28;20205;-85
2022/01/22 06:06:13;;;;;;;4.27;3.70;;;5.80;84.60;5.60;97375.00;;;;5094055;28;20213;-84
2022/01/22 06:08:46;;;;;;;4.57;4.13;;;5.70;84.70;5.60;97386.00;;;;5101816;28;20215;-85
2022/01/22 06:11:21;;;;;;;3.83;3.53;;;5.80;84.70;5.60;97383.00;;;;5103169;28;20241;-85
2022/01/22 06:13:49;;;;;;;4.43;3.97;;;5.80;84.70;5.60;97396.00;;;;5101506;28;20230;-85
2022/01/22 06:16:18;;;;;;;4.80;3.87;;;5.80;84.70;5.60;97406.00;;;;5073475;28;20243;-85
2022/01/22 06:18:45;;;;;;;4.70;3.93;;;5.80;84.80;5.60;97409.00;;;;5058808;28;20205;-85
2022/01/22 06:21:14;;;;;;;4.93;4.53;;;5.80;84.70;5.70;97412.00;;;;5059696;28;20220;-85
2022/01/22 06:23:43;;;;;;;4.80;4.20;;;5.80;84.80;5.70;97411.00;;;;5071819;28;20207;-84
2022/01/22 06:26:11;;;;;;;4.63;4.23;;;5.80;84.80;5.70;97417.00;;;;5067868;28;20200;-84
2022/01/22 06:28:38;;;;;;;5.20;4.73;;;5.80;84.90;5.70;97412.00;;;;5063864;28;20766;-84
2022/01/22 06:31:07;;;;;;;4.47;4.07;;;5.80;84.80;5.70;97419.00;;;;5066543;28;20196;-84
2022/01/22 06:33:34;;;;;;;4.40;4.00;;;5.70;84.80;5.70;97408.00;;;;5077781;28;20180;-85
2022/01/22 06:36:01;;;;;;;4.80;4.40;;;5.80;84.90;5.70;97414.00;;;;5078227;28;20203;-84
2022/01/22 06:38:30;;;;;;;4.50;4.10;;;5.80;85.00;5.80;97420.00;;;;5077590;28;20204;-85
2022/01/22 06:43:42;;;;;;;4.30;3.90;;;5.90;85.10;5.80;97418.00;;;;5079242;28;20234;-84
2022/01/22 06:46:09;;;;;;;4.53;4.13;;;5.90;84.90;5.80;97414.00;;;;5063763;28;20206;-85
2022/01/22 06:48:36;;;;;;;4.67;4.20;;;5.90;84.90;5.80;97422.00;;;;5057570;28;20227;-84
2022/01/22 06:51:03;;;;;;;4.23;3.83;;;5.90;84.70;5.70;97427.00;;;;5057056;28;20201;-84
2022/01/22 06:53:35;;;;;;;4.77;3.87;;;5.90;85.40;5.70;97425.00;;;;5074010;28;20665;-83
2022/01/22 06:56:04;;;;;;;4.80;4.40;;;5.90;84.90;5.80;97431.00;;;;5057191;28;20271;-83
2022/01/22 06:58:31;;;;;;;4.07;3.67;;;5.90;85.10;5.80;97445.00;;;;5068881;28;20665;-84
2022/01/22 07:00:58;;;;;;;4.33;3.93;;;5.90;84.90;5.80;97446.00;;;;5055923;28;20208;-83
2022/01/22 07:03:25;;;;;;;4.07;3.77;;;5.90;85.00;5.90;97449.00;;;;5073272;28;20288;-84
2022/01/22 07:05:54;;;;;;;4.00;3.70;;;5.90;85.00;5.90;97442.00;;;;5074477;28;20559;-82
2022/01/22 07:08:21;;;;;;;4.13;3.83;;;5.90;84.90;5.90;97446.00;;;;5072864;28;20279;-83
2022/01/22 07:10:49;;;;;;;5.03;4.20;;;5.90;85.60;5.90;97448.00;;;;5073044;28;20203;-82
2022/01/22 07:13:16;;;;;;;5.27;4.67;;;5.90;85.00;6.00;97465.00;;;;5073318;28;20196;-83
2022/01/22 07:15:43;;;;;;;4.43;4.03;;;5.90;85.00;6.00;97457.00;;;;5084272;28;20215;-83
2022/01/22 07:18:12;;;;;;;4.87;4.47;;;5.90;85.10;6.00;97457.00;;;;5094211;28;20206;-83
2022/01/22 07:20:41;;;;;;;4.17;3.77;;;5.90;85.20;6.00;97473.00;;;;5081349;28;20574;-83
2022/01/22 07:23:18;;;;;;;4.63;3.97;;;6.00;85.30;6.00;97477.00;;;;5058887;28;20307;-83
2022/01/22 07:25:45;;;;;;;4.37;4.07;;;6.00;85.30;6.10;97480.00;;;;5053314;28;20284;-82
2022/01/22 07:28:15;;;;;;;4.20;3.83;;;6.00;85.10;6.10;97478.00;;;;5063958;28;20192;-83
2022/01/22 07:30:44;;;;;;;5.43;4.13;;;6.00;85.10;6.10;97476.00;;;;5073681;28;20653;-81
2022/01/22 07:33:12;;;;;;;4.60;4.20;;;6.00;85.10;6.10;97471.00;;;;5072895;28;20204;-83
2022/01/22 07:35:42;;;;;;;4.40;4.00;;;5.90;85.00;6.10;97477.00;;;;5072133;28;20192;-82
2022/01/22 07:38:10;;;;;;;4.83;4.43;;;6.00;85.10;6.10;97487.00;;;;5072451;28;20203;-81
2022/01/22 07:40:38;;;;;;;4.70;4.30;;;6.00;85.10;6.10;97485.00;;;;5073249;28;20195;-82
2022/01/22 07:43:06;;;;;;;4.43;4.03;;;6.10;85.10;6.10;97483.00;;;;5072670;28;20242;-82
2022/01/22 07:45:35;;;;;;;4.30;4.00;;;6.10;85.10;6.10;97493.00;;;;5080647;28;20214;-82
2022/01/22 07:48:03;;;;;;;4.80;4.40;;;6.10;85.10;6.10;97490.00;;;;5061250;28;20187;-83
2022/01/22 07:50:30;;;;;;;4.13;3.73;;;6.10;85.00;6.10;97495.00;;;;5083532;28;20212;-83
2022/01/22 07:52:57;;;;;;;3.93;3.63;;;6.10;85.00;6.10;97489.00;;;;5071340;28;20215;-82
2022/01/22 07:55:24;;;;;;;4.33;3.93;;;6.10;85.10;6.10;97495.00;;;;5064274;28;20245;-82
2022/01/22 07:57:52;;;;;;;4.33;4.03;;;6.10;85.00;6.10;97485.00;;;;5064287;28;20570;-82
2022/01/22 08:00:19;;;;;;;4.90;4.50;;;6.10;85.10;6.10;97485.00;;;;5052648;28;20216;-82
2022/01/22 08:02:48;;;;;;;5.00;4.60;;;6.10;85.80;6.20;97486.00;;;;5052232;28;20307;-84
2022/01/22 08:05:16;;;;;;;4.90;4.50;;;6.10;85.10;6.20;97489.00;;;;5051241;28;20192;-83
2022/01/22 08:07:44;;;;;;;4.80;4.40;;;6.10;85.00;6.20;97495.00;;;;5051037;28;20203;-83
2022/01/22 08:10:13;;;;;;;4.90;4.50;;;6.10;85.10;6.20;97496.00;;;;5052266;28;20252;-82
2022/01/22 08:12:42;;;;;;;5.07;4.67;;;6.10;85.00;6.20;97497.00;;;;5052322;28;20224;-84
2022/01/22 08:15:13;;;;;;;4.63;4.33;;;6.20;85.10;6.20;97512.00;;;;5063146;28;20245;-82
2022/01/22 08:17:40;;;;;;;4.70;4.30;;;6.10;85.00;6.20;97497.00;;;;5092180;28;20180;-83
2022/01/22 08:20:14;;;;;;;5.20;4.73;;;6.10;85.00;6.20;97494.00;;;;5092436;28;20195;-82
2022/01/22 08:22:41;;;;;;;5.37;4.87;;;6.20;85.20;6.20;97497.00;;;;5069966;28;20271;-82
2022/01/22 08:25:10;;;;;;;4.60;4.30;;;6.20;85.20;6.20;97504.00;;;;5062650;28;20192;-82
2022/01/22 08:27:42;;;;;;;4.73;4.33;;;6.20;85.80;6.20;97501.00;;;;5066309;28;20204;-82
2022/01/22 08:30:14;;;;;;;5.43;4.93;;;6.10;85.00;6.20;97516.00;;;;5072296;28;20294;-82
2022/01/22 08:35:53;;;;;;;5.77;5.27;;;6.20;85.20;6.20;97502.00;;;;5110341;27;21066;-82
2022/01/22 08:38:22;;;;;;;5.10;4.50;;;6.20;85.20;6.20;97525.00;;;;5089036;28;20205;-82
2022/01/22 08:40:49;;;;;;;5.20;4.70;;;6.20;85.20;6.30;97520.00;;;;5088297;28;20180;-82
2022/01/22 08:43:17;;;;;;;5.10;4.67;;;6.20;85.20;6.30;97516.00;;;;5087915;28;20204;-82
2022/01/22 08:45:44;;;;;;;5.10;4.63;;;6.20;85.20;6.30;97525.00;;;;5078189;28;20224;-81
2022/01/22 08:48:12;;;;;;;5.73;5.13;;;6.20;86.00;6.30;97533.00;;;;5068792;28;20202;-82
2022/01/22 08:50:40;;;;;;;5.50;5.00;;;6.20;85.20;6.30;97530.00;;;;5081723;28;20195;-81
2022/01/22 08:53:07;;;;;;;5.27;4.73;;;6.30;85.30;6.30;97539.00;;;;5075569;28;20718;-81
2022/01/22 08:55:34;;;;;;;5.20;4.73;;;6.30;85.20;6.30;97534.00;;;;5074742;28;20226;-81
2022/01/22 08:58:02;;;;;;;5.17;4.67;;;6.30;85.20;6.30;97536.00;;;;5098828;28;20202;-80
2022/01/22 09:00:29;;;;;;;5.27;4.30;;;6.30;85.30;6.40;97548.00;;;;5072767;28;20210;-82
2022/01/22 09:02:58;;;;;;;5.33;4.83;;;6.30;85.20;6.30;97546.00;;;;5090768;28;20219;-81
2022/01/22 09:05:32;;;;;;;5.40;4.90;;;6.30;85.10;6.30;97553.00;;;;5073335;28;20559;-82
2022/01/22 09:08:00;;;;;;;5.70;5.20;;;6.30;85.30;6.30;97553.00;;;;5079727;28;20195;-81
2022/01/22 09:10:28;;;;;;;5.97;5.20;;;6.30;85.30;6.40;97556.00;;;;5074165;28;20204;-82
2022/01/22 09:12:55;;;;;;;5.77;5.23;;;6.30;85.40;6.40;97554.00;;;;5075768;28;20226;-81
2022/01/22 09:15:22;;;;;;;5.20;4.80;;;6.30;85.30;6.40;97561.00;;;;5077973;28;20227;-81
2022/01/22 09:17:49;;;;;;;5.60;5.10;;;6.30;85.40;6.40;97573.00;;;;5073003;28;20556;-81
2022/01/22 09:20:30;;;;;;;5.03;4.60;;;6.30;85.30;6.40;97577.00;;;;5072748;28;20557;-81
2022/01/22 09:23:00;;;;;;;5.37;4.93;;;6.30;85.30;6.40;97581.00;;;;5090193;28;20708;-83
2022/01/22 09:25:27;;;;;;;5.37;4.87;;;6.40;85.30;6.40;97576.00;;;;5073936;28;20631;-84
2022/01/22 09:27:53;;;;;;;4.83;4.43;;;6.40;85.30;6.40;97585.00;;;;5082684;28;20196;-82
2022/01/22 09:30:21;;;;;;;5.53;5.03;;;6.40;85.30;6.50;97579.00;;;;5072589;28;20192;-80
2022/01/22 09:32:49;;;;;;;6.00;5.40;;;6.40;85.40;6.50;97574.00;;;;5076604;22;20227;-86
2022/01/22 09:35:16;;;;;;;6.03;5.47;;;6.40;85.30;6.50;97575.00;;;;5049553;28;20693;-85
2022/01/22 09:37:44;;;;;;;5.13;4.73;;;6.40;85.40;6.50;97590.00;;;;5050801;28;20197;-86
2022/01/22 09:40:14;;;;;;;4.83;4.40;;;6.40;85.40;6.60;97593.00;;;;5047917;28;20662;-86
2022/01/22 09:42:41;;;;;;;5.00;4.60;;;6.50;85.40;6.60;97589.00;;;;5037363;28;20694;-86
2022/01/22 09:45:12;;;;;;;5.67;4.60;;;6.50;85.30;6.60;97597.00;;;;5022062;28;20202;-87
2022/01/22 09:47:43;;;;;;;4.93;4.53;;;6.50;85.20;6.60;97596.00;;;;5014517;28;20233;-85
2022/01/22 09:50:11;;;;;;;4.97;4.57;;;6.50;86.10;6.70;97602.00;;;;5014369;28;20194;-85
2022/01/22 09:52:39;;;;;;;5.13;4.73;;;6.50;85.40;6.60;97604.00;;;;5016246;28;20229;-86
2022/01/22 09:55:07;;;;;;;5.00;4.60;;;6.60;85.30;6.70;97605.00;;;;5014502;28;20229;-86
2022/01/22 09:57:37;;;;;;;6.30;4.83;;;6.50;85.80;6.70;97608.00;;;;5015400;28;20655;-85
2022/01/22 10:00:06;;;;;;;6.40;5.80;;;6.60;85.00;6.70;97619.00;;;;5015912;28;20233;-86
2022/01/22 10:02:42;;;;;;;7.27;6.40;;;6.60;85.10;6.70;97620.00;;;;5016475;28;20260;-85
2022/01/22 10:05:42;;;;;;;6.37;5.77;;;6.60;85.10;6.60;97622.00;;;;5015330;28;20202;-85
2022/01/22 10:08:27;;;;;;;7.57;6.23;;;6.60;85.20;6.60;97624.00;;;;5014475;28;20198;-85
2022/01/22 10:10:56;;;;;;;5.60;5.10;;;6.60;84.90;6.60;97615.00;;;;5015040;28;20210;-85
2022/01/22 10:13:43;;;;;;;6.63;6.03;;;6.70;85.00;6.60;97613.00;;;;5013948;28;20222;-85
2022/01/22 10:16:22;;;;;;;5.93;5.43;;;6.60;84.90;6.70;97625.00;;;;5013112;28;20777;-86
2022/01/22 10:19:13;;;;;;;9.23;6.53;;;6.60;85.10;6.70;97624.00;;;;4999038;28;20203;-86
2022/01/22 10:21:44;;;;;;;5.83;5.23;;;6.60;85.20;6.70;97620.00;;;;5015434;28;20214;-86
2022/01/22 10:24:27;;;;;;;5.30;4.80;;;6.60;85.10;6.70;97615.00;;;;5009499;28;20206;-86
2022/01/22 10:27:29;;;;;;;6.13;5.53;;;6.60;85.20;6.70;97611.00;;;;5002039;28;20656;-85
2022/01/22 10:30:03;;;;;;;5.80;5.20;;;6.60;85.00;6.70;97614.00;;;;5005668;28;20226;-85
2022/01/22 10:32:45;;;;;;;8.43;7.07;;;6.60;85.10;6.70;97612.00;;;;5012232;28;20234;-85
2022/01/22 10:35:16;;;;;;;6.03;5.53;;;6.60;85.90;6.70;97615.00;;;;5007717;28;20304;-86
2022/01/22 10:37:44;;;;;;;5.67;5.13;;;6.60;85.10;6.70;97605.00;;;;5014213;28;20202;-86
2022/01/22 10:40:27;;;;;;;5.60;5.10;;;6.60;85.00;6.70;97609.00;;;;5016521;28;20200;-86
2022/01/22 10:43:17;;;;;;;5.80;5.20;;;6.60;85.00;6.70;97613.00;;;;5016334;28;20218;-86
2022/01/22 10:46:08;;;;;;;5.10;4.60;;;6.60;85.00;6.70;97615.00;;;;5005528;28;20202;-86
2022/01/22 10:48:38;;;;;;;5.63;4.87;;;6.60;85.00;6.70;97616.00;;;;5014671;28;20668;-87
2022/01/22 10:51:09;;;;;;;5.43;4.93;;;6.60;85.10;6.70;97621.00;;;;5015842;28;20205;-86
2022/01/22 10:53:43;;;;;;;5.67;5.20;;;6.70;85.20;6.70;97623.00;;;;5015851;28;20257;-86
2022/01/22 10:56:14;;;;;;;6.57;5.83;;;6.60;84.90;6.60;97612.00;;;;5007372;28;20729;-86
2022/01/22 10:58:58;;;;;;;6.83;6.13;;;6.60;85.00;6.70;97620.00;;;;5014874;28;20198;-87
2022/01/22 11:01:30;;;;;;;5.90;5.40;;;6.70;84.90;6.70;97630.00;;;;5013578;28;20209;-86
2022/01/22 11:04:12;;;;;;;7.03;5.60;;;6.60;84.90;6.70;97635.00;;;;5019721;28;20188;-88
2022/01/22 11:06:48;;;;;;;5.70;5.03;;;6.60;85.00;6.70;97632.00;;;;5013516;28;20202;-85
2022/01/22 11:09:15;;;;;;;6.63;6.00;;;6.60;85.10;6.70;97636.00;;;;5004676;28;20198;-86
2022/01/22 11:11:43;;;;;;;6.60;5.90;;;6.60;85.20;6.70;97646.00;;;;5009710;28;20221;-85
2022/01/22 11:14:14;;;;;;;6.03;5.37;;;6.60;85.10;6.70;97641.00;;;;5001159;28;20658;-85
2022/01/22 11:16:46;;;;;;;5.87;5.27;;;6.60;85.00;6.70;97651.00;;;;5012875;28;20205;-84
2022/01/22 11:19:16;;;;;;;6.53;5.93;;;6.60;85.00;6.70;97642.00;;;;5012018;28;20551;-85
2022/01/22 11:21:48;;;;;;;9.73;6.63;;;6.60;85.20;6.70;97635.00;;;;5013497;28;20718;-85
2022/01/22 11:24:19;;;;;;;11.77;7.47;;;6.60;85.20;6.80;97628.00;;;;5001309;28;20192;-84
2022/01/22 11:26:51;;;;;;;11.83;7.20;;;6.70;85.20;6.80;97631.00;;;;5013693;28;20543;-85
2022/01/22 11:29:21;;;;;;;12.40;7.90;;;6.70;85.20;6.80;97638.00;;;;5013868;28;20194;-85
2022/01/22 11:31:53;;;;;;;9.77;7.17;;;6.70;85.20;6.80;97632.00;;;;5015010;28;20232;-84
2022/01/22 11:34:24;;;;;;;7.30;6.57;;;6.70;85.30;6.80;97635.00;;;;5012679;28;20182;-85
2022/01/22 11:37:02;;;;;;;6.93;6.23;;;6.70;85.40;6.80;97626.00;;;;5012814;28;20178;-84
2022/01/22 11:39:29;;;;;;;7.43;6.47;;;6.70;85.10;6.80;97626.00;;;;5012664;28;20293;-83
2022/01/22 11:41:59;;;;;;;8.20;6.70;;;6.70;85.40;6.80;97636.00;;;;4994367;28;20218;-84
2022/01/22 11:44:34;;;;;;;7.43;6.73;;;6.70;85.20;6.80;97634.00;;;;4993516;28;20213;-84
2022/01/22 11:47:15;;;;;;;8.93;7.10;;;6.70;85.20;6.80;97640.00;;;;4994126;28;20202;-84
2022/01/22 11:50:06;;;;;;;7.33;6.40;;;6.70;85.20;6.80;97637.00;;;;4993885;28;20206;-84
2022/01/22 11:52:36;;;;;;;7.13;6.50;;;6.70;85.20;6.80;97630.00;;;;4993345;28;20353;-84
2022/01/22 11:55:13;;;;;;;7.33;6.20;;;6.70;85.10;6.90;97630.00;;;;5000466;28;20282;-85
2022/01/22 11:57:42;;;;;;;7.20;6.43;;;6.70;85.30;6.90;97633.00;;;;5013869;28;20202;-85
2022/01/22 12:00:26;;;;;;;8.17;7.07;;;6.80;85.50;6.90;97640.00;;;;5005721;28;20293;-85
2022/01/22 12:03:21;;;;;;;7.87;6.53;;;6.80;85.30;6.90;97639.00;;;;4996134;28;20216;-84
2022/01/22 12:06:07;;;;;;;9.13;7.13;;;6.80;85.50;6.90;97635.00;;;;5013012;28;20225;-85
2022/01/22 12:09:12;;;;;;;9.03;8.13;;;6.80;85.10;6.90;97634.00;;;;5013134;28;20211;-84
2022/01/22 12:14:55;;;;;;;10.00;7.40;;;6.80;85.20;6.90;97630.00;;;;5012250;28;20575;-85
2022/01/22 12:18:11;;;;;;;8.30;7.50;;;6.80;85.40;6.90;97639.00;;;;4999598;28;20779;-85
2022/01/22 12:24:04;;;;;;;7.93;7.13;;;6.80;85.20;6.90;97635.00;;;;5012664;28;20271;-84
2022/01/22 12:26:48;;;;;;;8.50;7.17;;;6.80;85.30;6.90;97644.00;;;;5005122;28;20205;-84
2022/01/22 12:29:45;;;;;;;9.30;7.30;;;6.80;85.10;6.90;97636.00;;;;5012398;28;20207;-84
2022/01/22 12:32:35;;;;;;;7.80;7.10;;;6.90;85.00;7.00;97637.00;;;;5010722;28;20225;-85
2022/01/22 12:35:14;;;;;;;7.87;6.80;;;6.90;85.30;7.00;97633.00;;;;5010807;28;20214;-85
2022/01/22 12:38:00;;;;;;;7.80;7.00;;;6.90;85.60;7.00;97631.00;;;;5012295;28;20671;-84
2022/01/22 12:40:33;;;;;;;7.87;7.07;;;6.90;85.50;7.10;97638.00;;;;5004703;28;20672;-84
2022/01/22 12:43:13;;;;;;;8.17;6.53;;;7.00;85.60;7.10;97627.00;;;;5005622;28;20629;-85
2022/01/22 12:45:44;;;;;;;7.40;6.70;;;6.90;85.60;7.10;97630.00;;;;5016771;28;20734;-82
2022/01/22 12:48:15;;;;;;;7.80;7.00;;;6.90;85.40;7.10;97619.00;;;;5015184;28;20186;-88
2022/01/22 12:50:42;;;;;;;8.30;7.40;;;7.00;85.30;7.10;97620.00;;;;4998927;28;20198;-85
2022/01/22 12:53:16;;;;;;;8.73;7.40;;;7.00;85.40;7.10;97620.00;;;;5013183;28;20309;-85
2022/01/22 12:56:02;;;;;;;6.57;5.90;;;7.00;85.20;7.10;97629.00;;;;5014390;28;20289;-83
2022/01/22 12:58:32;;;;;;;8.20;7.40;;;7.00;85.40;7.10;97622.00;;;;5011817;28;20665;-84
2022/01/22 13:01:22;;;;;;;10.10;8.23;;;7.00;85.10;7.10;97621.00;;;;5016292;28;20194;-85
2022/01/22 13:03:51;;;;;;;8.43;7.53;;;7.00;84.90;7.10;97624.00;;;;5013244;28;20277;-82
2022/01/22 13:06:22;;;;;;;8.80;7.77;;;7.00;84.90;7.10;97627.00;;;;5027312;28;20201;-85
2022/01/22 13:08:56;;;;;;;9.33;7.83;;;7.00;85.20;7.10;97628.00;;;;5020193;28;20186;-84
2022/01/22 13:11:27;;;;;;;7.67;6.80;;;7.00;85.20;7.10;97628.00;;;;5017543;28;20201;-85
2022/01/22 13:13:54;;;;;;;9.20;7.50;;;7.00;84.70;7.10;97621.00;;;;5021918;28;20205;-84
2022/01/22 13:16:23;;;;;;;7.57;6.87;;;7.00;85.00;7.10;97629.00;;;;4999898;28;20230;-85
2022/01/22 13:18:56;;;;;;;8.67;7.17;;;6.90;85.40;7.10;97627.00;;;;4999981;28;20190;-85